createdAt,value
2023-05-22T00:00:00.271Z,3
2023-05-22T00:05:00.416Z,2
2023-05-22T00:10:00.310Z,3
2023-05-22T00:15:00.258Z,2
2023-05-22T00:20:00.251Z,2
2023-05-22T00:25:00.199Z,2
2023-05-22T00:30:00.274Z,3
2023-05-22T00:35:00.195Z,2
2023-05-22T00:40:00.296Z,1
2023-05-22T00:45:00.222Z,3
2023-05-22T00:50:00.219Z,3
2023-05-22T00:55:00.319Z,3
2023-05-22T01:00:00.300Z,3
2023-05-22T01:05:00.200Z,3
2023-05-22T01:10:00.270Z,3
2023-05-22T01:15:00.218Z,3
2023-05-22T01:20:00.239Z,3
2023-05-22T01:25:00.279Z,1
2023-05-22T01:30:00.203Z,1
2023-05-22T01:35:00.249Z,1
2023-05-22T01:40:00.258Z,0
2023-05-22T01:45:00.228Z,0
2023-05-22T01:50:00.271Z,0
2023-05-22T01:55:00.229Z,1
2023-05-22T02:00:00.279Z,1
2023-05-22T02:05:00.287Z,1
2023-05-22T02:10:00.249Z,2
2023-05-22T02:15:00.282Z,2
2023-05-22T02:20:00.272Z,2
2023-05-22T02:25:00.195Z,1
2023-05-22T02:30:00.291Z,1
2023-05-22T02:35:00.412Z,1
2023-05-22T02:40:00.201Z,1
2023-05-22T02:45:00.264Z,1
2023-05-22T02:50:00.258Z,1
2023-05-22T02:55:00.199Z,1
2023-05-22T03:00:00.456Z,1
2023-05-22T03:05:00.199Z,0
2023-05-22T03:10:00.255Z,1
2023-05-22T03:15:00.219Z,0
2023-05-22T03:20:00.276Z,0
2023-05-22T03:25:00.270Z,0
2023-05-22T03:30:00.294Z,0
2023-05-22T03:35:00.197Z,0
2023-05-22T03:40:00.295Z,0
2023-05-22T03:45:00.260Z,0
2023-05-22T03:50:00.260Z,1
2023-05-22T03:55:00.241Z,1
2023-05-22T04:00:00.265Z,1
2023-05-22T04:05:00.370Z,2
2023-05-22T04:10:00.367Z,2
2023-05-22T04:15:00.240Z,1
2023-05-22T04:20:00.285Z,1
2023-05-22T04:25:00.199Z,1
2023-05-22T04:30:00.797Z,1
2023-05-22T04:35:00.384Z,3
2023-05-22T04:40:00.261Z,1
2023-05-22T04:45:00.223Z,1
2023-05-22T04:50:00.312Z,1
2023-05-22T04:55:01.201Z,1
2023-05-22T05:00:00.292Z,1
2023-05-22T05:05:00.239Z,2
2023-05-22T05:10:00.264Z,3
2023-05-22T05:15:00.236Z,3
2023-05-22T05:20:00.231Z,3
2023-05-22T05:25:00.201Z,3
2023-05-22T05:30:00.271Z,3
2023-05-22T05:35:00.262Z,3
2023-05-22T05:40:00.282Z,2
2023-05-22T05:45:00.237Z,3
2023-05-22T05:50:00.284Z,3
2023-05-22T05:55:00.216Z,3
2023-05-22T06:00:00.388Z,2
2023-05-22T06:05:00.286Z,1
2023-05-22T06:10:00.308Z,3
2023-05-22T06:15:00.207Z,2
2023-05-22T06:20:00.304Z,3
2023-05-22T06:25:00.233Z,5
2023-05-22T06:30:00.275Z,4
2023-05-22T06:35:00.213Z,2
2023-05-22T06:40:00.308Z,3
2023-05-22T06:45:00.447Z,5
2023-05-22T06:50:00.344Z,4
2023-05-22T06:55:00.273Z,4
2023-05-22T07:00:00.345Z,3
2023-05-22T07:05:00.270Z,2
2023-05-22T07:10:00.268Z,1
2023-05-22T07:15:00.370Z,3
2023-05-22T07:20:00.324Z,3
2023-05-22T07:25:00.247Z,5
2023-05-22T07:30:00.280Z,4
2023-05-22T07:35:00.193Z,3
2023-05-22T07:40:00.284Z,2
2023-05-22T07:45:00.233Z,3
2023-05-22T07:50:00.399Z,4
2023-05-22T07:55:00.255Z,4
2023-05-22T08:00:00.307Z,6
2023-05-22T08:05:00.354Z,4
2023-05-22T08:10:00.468Z,5
2023-05-22T08:15:00.267Z,5
2023-05-22T08:20:00.504Z,3
2023-05-22T08:25:00.237Z,4
2023-05-22T08:30:00.465Z,5
2023-05-22T08:35:00.214Z,5
2023-05-22T08:40:00.255Z,5
2023-05-22T08:45:00.217Z,4
2023-05-22T08:50:00.273Z,3
2023-05-22T08:55:00.242Z,4
2023-05-22T09:00:00.286Z,4
2023-05-22T09:05:00.200Z,4
2023-05-22T09:10:00.240Z,5
2023-05-22T09:15:00.233Z,5
2023-05-22T09:20:00.292Z,3
2023-05-22T09:25:00.263Z,4
2023-05-22T09:30:00.264Z,4
2023-05-22T09:35:00.278Z,3
2023-05-22T09:40:00.294Z,5
2023-05-22T09:45:00.276Z,4
2023-05-22T09:50:00.297Z,3
2023-05-22T09:55:00.238Z,3
2023-05-22T10:00:00.334Z,3
2023-05-22T10:05:00.227Z,5
2023-05-22T10:10:00.233Z,5
2023-05-22T10:15:00.276Z,4
2023-05-22T10:20:00.323Z,5
2023-05-22T10:25:00.209Z,2
2023-05-22T10:30:00.286Z,3
2023-05-22T10:35:00.414Z,3
2023-05-22T10:40:00.253Z,5
2023-05-22T10:45:00.233Z,3
2023-05-22T10:50:00.333Z,5
2023-05-22T10:55:00.218Z,6
2023-05-22T11:00:00.292Z,4
2023-05-22T11:05:00.312Z,4
2023-05-22T11:10:00.270Z,4
2023-05-22T11:15:00.233Z,5
2023-05-22T11:20:00.426Z,3
2023-05-22T11:25:00.216Z,4
2023-05-22T11:30:00.392Z,3
2023-05-22T11:35:00.292Z,4
2023-05-22T11:40:00.284Z,4
2023-05-22T11:45:00.242Z,4
2023-05-22T11:50:00.265Z,6
2023-05-22T11:55:00.204Z,7
2023-05-22T12:00:00.354Z,4
2023-05-22T12:05:00.315Z,3
2023-05-22T12:10:00.284Z,5
2023-05-22T12:15:00.226Z,7
2023-05-22T12:20:00.280Z,3
2023-05-22T12:25:00.204Z,5
2023-05-22T12:30:00.417Z,3
2023-05-22T12:35:00.290Z,5
2023-05-22T12:40:00.317Z,4
2023-05-22T12:45:00.494Z,5
2023-05-22T12:50:00.273Z,4
2023-05-22T12:55:00.189Z,5
2023-05-22T13:00:00.306Z,4
2023-05-22T13:05:00.249Z,4
2023-05-22T13:10:00.256Z,4
2023-05-22T13:15:00.311Z,4
2023-05-22T13:20:00.260Z,3
2023-05-22T13:25:00.228Z,4
2023-05-22T13:30:00.313Z,3
2023-05-22T13:35:00.214Z,2
2023-05-22T13:40:00.262Z,4
2023-05-22T13:45:00.235Z,3
2023-05-22T13:50:00.302Z,4
2023-05-22T13:55:00.388Z,4
2023-05-22T14:00:00.303Z,5
2023-05-22T14:05:00.330Z,5
2023-05-22T14:10:01.484Z,3
2023-05-22T14:15:00.231Z,3
2023-05-22T14:20:00.373Z,4
2023-05-22T14:25:00.295Z,3
2023-05-22T14:30:00.283Z,3
2023-05-22T14:35:00.229Z,3
2023-05-22T14:40:00.242Z,2
2023-05-22T14:45:00.276Z,3
2023-05-22T14:50:14.552Z,5
2023-05-22T14:55:00.214Z,3
2023-05-22T15:00:00.340Z,3
2023-05-22T15:05:00.283Z,5
2023-05-22T15:10:00.268Z,4
2023-05-22T15:15:00.250Z,5
2023-05-22T15:20:00.384Z,5
2023-05-22T15:25:00.419Z,3
2023-05-22T15:30:00.328Z,4
2023-05-22T15:35:00.264Z,4
2023-05-22T15:40:00.263Z,3
2023-05-22T15:45:00.252Z,4
2023-05-22T15:50:00.300Z,3
2023-05-22T15:55:00.644Z,4
2023-05-22T16:00:00.510Z,4
2023-05-22T16:05:00.212Z,3
2023-05-22T16:10:00.367Z,3
2023-05-22T16:15:01.239Z,3
2023-05-22T16:20:00.331Z,1
2023-05-22T16:25:00.223Z,3
2023-05-22T16:30:00.284Z,4
2023-05-22T16:35:00.284Z,2
2023-05-22T16:40:00.391Z,5
2023-05-22T16:45:00.289Z,5
2023-05-22T16:50:00.400Z,4
2023-05-22T16:55:00.262Z,5
2023-05-22T17:00:00.592Z,4
2023-05-22T17:05:00.308Z,1
2023-05-22T17:10:00.361Z,1
2023-05-22T17:15:00.370Z,3
2023-05-22T17:20:00.366Z,3
2023-05-22T17:25:00.199Z,3
2023-05-22T17:30:00.785Z,3
2023-05-22T17:35:00.279Z,3
2023-05-22T17:40:00.437Z,3
2023-05-22T17:45:00.407Z,3
2023-05-22T17:50:00.356Z,3
2023-05-22T17:55:00.278Z,4
2023-05-22T18:00:00.372Z,3
2023-05-22T18:05:00.225Z,3
2023-05-22T18:10:00.312Z,3
2023-05-22T18:15:00.242Z,3
2023-05-22T18:20:00.285Z,3
2023-05-22T18:25:00.285Z,2
2023-05-22T18:30:00.287Z,3
2023-05-22T18:35:00.237Z,3
2023-05-22T18:40:00.499Z,2
2023-05-22T18:45:00.379Z,2
2023-05-22T18:50:00.321Z,2
2023-05-22T18:55:00.250Z,1
2023-05-22T19:00:00.282Z,2
2023-05-22T19:05:00.322Z,1
2023-05-22T19:10:00.345Z,2
2023-05-22T19:15:00.240Z,1
2023-05-22T19:20:00.321Z,0
2023-05-22T19:25:00.306Z,1
2023-05-22T19:30:00.261Z,1
2023-05-22T19:35:00.230Z,1
2023-05-22T19:40:00.385Z,1
2023-05-22T19:45:00.263Z,1
2023-05-22T19:50:00.301Z,0
2023-05-22T19:55:00.216Z,1
2023-05-22T20:00:00.268Z,0
2023-05-22T20:05:00.289Z,1
2023-05-22T20:10:00.288Z,1
2023-05-22T20:15:00.243Z,1
2023-05-22T20:20:00.345Z,1
2023-05-22T20:25:00.210Z,1
2023-05-22T20:30:00.556Z,0
2023-05-22T20:35:00.192Z,0
2023-05-22T20:40:00.267Z,0
2023-05-22T20:45:00.315Z,0
2023-05-22T20:50:00.247Z,1
2023-05-22T20:55:00.192Z,1
2023-05-22T21:00:00.265Z,0
2023-05-22T21:05:00.222Z,0
2023-05-22T21:10:00.265Z,0
2023-05-22T21:15:00.218Z,0
2023-05-22T21:20:00.306Z,0
2023-05-22T21:25:00.306Z,0
2023-05-22T21:30:00.402Z,0
2023-05-22T21:35:00.227Z,1
2023-05-22T21:40:00.345Z,1
2023-05-22T21:45:00.786Z,0
2023-05-22T21:50:00.257Z,1
2023-05-22T21:55:00.275Z,0
2023-05-22T22:00:00.393Z,0
2023-05-22T22:05:00.196Z,1
2023-05-22T22:10:00.258Z,0
2023-05-22T22:15:00.236Z,0
2023-05-22T22:20:00.261Z,0
2023-05-22T22:25:00.230Z,0
2023-05-22T22:30:00.260Z,0
2023-05-22T22:35:00.236Z,0
2023-05-22T22:40:00.366Z,0
2023-05-22T22:45:00.236Z,0
2023-05-22T22:50:00.274Z,0
2023-05-22T22:55:00.191Z,0
2023-05-22T23:00:00.319Z,0
2023-05-22T23:05:00.399Z,0
2023-05-22T23:10:00.234Z,0
2023-05-22T23:15:00.278Z,0
2023-05-22T23:20:00.240Z,0
2023-05-22T23:25:00.353Z,0
2023-05-22T23:30:00.286Z,0
2023-05-22T23:35:00.282Z,0
2023-05-22T23:40:00.337Z,1
2023-05-22T23:45:00.230Z,1
2023-05-22T23:50:00.360Z,0
2023-05-22T23:55:00.223Z,1
